N100MB KAPA-KAKO
Flight info
| Callsign | N100MB |
|---|---|
| Flight time | N/A |
| Altitude | 7999 |
| Route | PLAIN2 AKO |
| Aircraft | C172/L-SFG/C |
Departure
| Time | N/A |
|---|---|
| Airport | Centennial Airport (KAPA) |
Arrival
| Time | 2026-04-20 21:48 |
|---|---|
| Airport | Colorado Plains Regional Airport (KAKO) |
| Time | Latitude | Longitude | Altitude | Speed | Heading |
|---|---|---|---|---|---|
| 2026-04-20 21:28 | 40.01423 | -103.23452 | 7873 ft | 132 kts | 107° |
| 2026-04-20 21:28 | 40.01011 | -103.22383 | 7888 ft | 133 kts | 128° |
| 2026-04-20 21:29 | 40.00493 | -103.21380 | 7875 ft | 132 kts | 127° |
| 2026-04-20 21:29 | 39.99977 | -103.20401 | 7878 ft | 130 kts | 127° |
| 2026-04-20 21:29 | 39.99457 | -103.19428 | 7875 ft | 131 kts | 127° |
| 2026-04-20 21:29 | 39.99051 | -103.18377 | 7864 ft | 133 kts | 107° |
| 2026-04-20 21:30 | 39.99037 | -103.17185 | 7867 ft | 131 kts | 85° |
| 2026-04-20 21:30 | 39.99109 | -103.16003 | 7868 ft | 131 kts | 87° |
| 2026-04-20 21:30 | 39.99139 | -103.14814 | 7878 ft | 130 kts | 88° |
| 2026-04-20 21:30 | 39.99273 | -103.13642 | 7872 ft | 132 kts | 76° |
| 2026-04-20 21:31 | 39.99457 | -103.12465 | 7879 ft | 132 kts | 76° |
| 2026-04-20 21:31 | 39.99647 | -103.11278 | 7800 ft | 137 kts | 78° |
| 2026-04-20 21:31 | 39.99951 | -103.10075 | 7681 ft | 143 kts | 66° |
| 2026-04-20 21:31 | 40.00321 | -103.08860 | 7560 ft | 144 kts | 66° |
| 2026-04-20 21:32 | 40.00701 | -103.07638 | 7446 ft | 145 kts | 62° |
| 2026-04-20 21:32 | 40.01208 | -103.06495 | 7324 ft | 145 kts | 56° |
| 2026-04-20 21:32 | 40.01729 | -103.05371 | 7204 ft | 144 kts | 57° |
| 2026-04-20 21:32 | 40.02246 | -103.04242 | 7087 ft | 145 kts | 57° |
| 2026-04-20 21:33 | 40.02748 | -103.03130 | 6958 ft | 142 kts | 57° |
| 2026-04-20 21:33 | 40.03349 | -103.02139 | 6833 ft | 138 kts | 39° |
| 2026-04-20 21:33 | 40.04074 | -103.01327 | 6714 ft | 137 kts | 38° |
| 2026-04-20 21:33 | 40.04825 | -103.00567 | 6594 ft | 135 kts | 26° |
| 2026-04-20 21:34 | 40.05700 | -103.00389 | 6464 ft | 129 kts | 338° |
| 2026-04-20 21:34 | 40.06464 | -103.00937 | 6351 ft | 122 kts | 326° |
| 2026-04-20 21:34 | 40.07162 | -103.01508 | 6219 ft | 114 kts | 316° |
| 2026-04-20 21:34 | 40.07709 | -103.02210 | 6080 ft | 108 kts | 313° |
| 2026-04-20 21:35 | 40.08206 | -103.02926 | 5954 ft | 107 kts | 301° |
| 2026-04-20 21:35 | 40.08536 | -103.03794 | 5851 ft | 106 kts | 292° |
| 2026-04-20 21:35 | 40.08839 | -103.04646 | 5724 ft | 102 kts | 292° |
| 2026-04-20 21:35 | 40.09172 | -103.05461 | 5600 ft | 102 kts | 300° |
| 2026-04-20 21:36 | 40.09568 | -103.06191 | 5481 ft | 97 kts | 308° |
| 2026-04-20 21:36 | 40.09975 | -103.06840 | 5333 ft | 87 kts | 307° |
| 2026-04-20 21:36 | 40.10343 | -103.07426 | 5200 ft | 85 kts | 304° |
| 2026-04-20 21:36 | 40.10730 | -103.08007 | 5175 ft | 83 kts | 308° |
| 2026-04-20 21:37 | 40.11082 | -103.08602 | 5174 ft | 86 kts | 303° |
| 2026-04-20 21:37 | 40.11412 | -103.09298 | 5180 ft | 93 kts | 302° |
| 2026-04-20 21:37 | 40.11757 | -103.10001 | 5168 ft | 88 kts | 300° |
| 2026-04-20 21:37 | 40.12084 | -103.10642 | 5154 ft | 81 kts | 302° |
| 2026-04-20 21:38 | 40.12388 | -103.11258 | 5152 ft | 80 kts | 298° |
| 2026-04-20 21:38 | 40.12688 | -103.11879 | 5164 ft | 82 kts | 297° |
| 2026-04-20 21:38 | 40.13001 | -103.12519 | 5251 ft | 85 kts | 302° |
| 2026-04-20 21:38 | 40.13292 | -103.13197 | 5298 ft | 89 kts | 297° |
| 2026-04-20 21:39 | 40.13596 | -103.13923 | 5301 ft | 91 kts | 296° |
| 2026-04-20 21:39 | 40.13868 | -103.14650 | 5296 ft | 88 kts | 297° |
| 2026-04-20 21:39 | 40.14138 | -103.15366 | 5299 ft | 88 kts | 301° |
| 2026-04-20 21:39 | 40.14586 | -103.15907 | 5301 ft | 92 kts | 319° |
| 2026-04-20 21:40 | 40.15052 | -103.16526 | 5287 ft | 97 kts | 309° |
| 2026-04-20 21:40 | 40.15409 | -103.17251 | 5295 ft | 93 kts | 299° |
| 2026-04-20 21:40 | 40.15722 | -103.17992 | 5331 ft | 94 kts | 299° |
| 2026-04-20 21:40 | 40.16032 | -103.18739 | 5333 ft | 92 kts | 298° |
| 2026-04-20 21:41 | 40.16372 | -103.19452 | 5135 ft | 92 kts | 300° |
| 2026-04-20 21:41 | 40.16654 | -103.20133 | 5038 ft | 79 kts | 302° |
| 2026-04-20 21:41 | 40.16916 | -103.20699 | 5089 ft | 69 kts | 301° |
| 2026-04-20 21:41 | 40.17167 | -103.21253 | 5160 ft | 74 kts | 301° |
| 2026-04-20 21:42 | 40.17442 | -103.21797 | 5392 ft | 74 kts | 313° |
| 2026-04-20 21:42 | 40.17937 | -103.21863 | 5413 ft | 100 kts | 43° |
| 2026-04-20 21:42 | 40.17911 | -103.20961 | 5456 ft | 109 kts | 133° |
| 2026-04-20 21:42 | 40.17330 | -103.20329 | 5580 ft | 109 kts | 146° |
| 2026-04-20 21:43 | 40.16773 | -103.19686 | 5755 ft | 105 kts | 142° |
| 2026-04-20 21:43 | 40.16306 | -103.19036 | 5976 ft | 95 kts | 138° |
| 2026-04-20 21:43 | 40.15856 | -103.18402 | 6098 ft | 98 kts | 136° |
| 2026-04-20 21:43 | 40.15360 | -103.17691 | 6131 ft | 110 kts | 128° |
| 2026-04-20 21:44 | 40.15175 | -103.16749 | 6224 ft | 109 kts | 89° |
| 2026-04-20 21:44 | 40.15255 | -103.15735 | 6229 ft | 120 kts | 83° |
| 2026-04-20 21:44 | 40.15318 | -103.14589 | 6158 ft | 128 kts | 98° |
| 2026-04-20 21:44 | 40.14763 | -103.13815 | 6060 ft | 121 kts | 176° |
| 2026-04-20 21:45 | 40.14073 | -103.14136 | 5833 ft | 99 kts | 239° |
| 2026-04-20 21:45 | 40.13988 | -103.14932 | 5641 ft | 88 kts | 296° |
| 2026-04-20 21:45 | 40.14366 | -103.15468 | 5604 ft | 70 kts | 312° |
| 2026-04-20 21:45 | 40.14673 | -103.15971 | 5669 ft | 73 kts | 304° |
| 2026-04-20 21:46 | 40.14962 | -103.16549 | 5655 ft | 78 kts | 306° |
| 2026-04-20 21:46 | 40.15339 | -103.17073 | 5583 ft | 80 kts | 300° |
| 2026-04-20 21:46 | 40.15622 | -103.17767 | 5454 ft | 91 kts | 297° |
| 2026-04-20 21:46 | 40.15924 | -103.18466 | 5336 ft | 85 kts | 302° |
| 2026-04-20 21:47 | 40.16205 | -103.19101 | 5098 ft | 77 kts | 298° |
| 2026-04-20 21:47 | 40.16448 | -103.19664 | 5012 ft | 70 kts | 302° |
| 2026-04-20 21:47 | 40.16705 | -103.20219 | 4871 ft | 70 kts | 301° |
| 2026-04-20 21:47 | 40.16938 | -103.20765 | 4765 ft | 69 kts | 303° |
| 2026-04-20 21:48 | 40.17169 | -103.21298 | 4675 ft | 64 kts | 304° |
| 2026-04-20 21:48 | 40.17316 | -103.21630 | 4672 ft | 21 kts | 301° |
| 2026-04-20 21:48 | 40.17378 | -103.21772 | 4674 ft | 17 kts | 300° |
| 2026-04-20 21:48 | 40.17436 | -103.21786 | 4676 ft | 7 kts | 26° |
| 2026-04-20 21:49 | 40.17476 | -103.21756 | 4676 ft | 7 kts | 34° |
| 2026-04-20 21:49 | 40.17469 | -103.21689 | 4675 ft | 0 kts | 121° |